Latest Coastal Weather Observations for Dum In Mirrie

IDD60701

Issued at 6:12 pm CST Saturday 20 December 2014 (issued every 10 minutes, with the page automatically refreshed every 10 minutes)

About coastal observations | Map of coastal stations | Coastal observations for NT | Marine services | Other Formats
Station Details ID: 014277 Name: DUM IN MIRRIE AIRSTRIP Lat: -12.63 Lon: 130.37 Height: 3.5 m
Data from the previous 72 hours. | See also: Recent months at Dum In Mirrie
Date/Time
CST
Temp

°C
Wind Pressure Rain
since 9am
mm
Weather Cloud Vis
km
Sea
Height
m
Swell
Dir
 
Speed
knots
Gust
knots
hPa Trend Height
m
Period
s
Dir
20/06:00pm 31.8 NNW 5 8 1004.8 - 0.2 - - - - - - -
20/05:30pm 32.0 N 6 11 1004.5 - 0.2 - - - - - - -
20/05:00pm 32.4 N 6 10 1004.5 - 0.2 - - - - - - -
20/04:30pm 32.3 N 8 12 1004.4 - 0.2 - - - - - - -
20/04:00pm 32.4 NNE 8 13 1004.6 - 0.2 - - - - - - -
20/03:30pm 33.0 N 8 12 1004.9 - 0.2 - - - - - - -
20/03:00pm 33.4 N 7 12 1005.2 - 0.2 - - - - - - -
20/02:30pm 33.7 NNE 7 10 1005.8 - 0.2 - - - - - - -
20/02:00pm 34.2 ENE 5 8 1006.1 - 0.2 - - - - - - -
20/01:30pm 33.8 ENE 7 10 1006.5 - 0.2 - - - - - - -
20/01:00pm 33.0 ENE 7 10 1006.9 - 0.2 - - - - - - -
20/12:30pm 32.7 E 6 9 1007.4 - 0.2 - - - - - - -
20/12:00pm 31.3 E 5 9 1008.0 - 0.2 - - - - - - -
20/11:30am 31.3 SE 5 9 1008.5 - 0.2 - - - - - - -
20/11:00am 29.8 SSE 4 8 1009.1 - 0.2 - - - - - - -
20/10:30am 28.4 S 4 7 1009.5 - 0.2 - - - - - - -
20/10:00am 27.5 S 3 5 1009.8 - 0.0 - - - - - - -
20/09:30am 26.6 SE 3 7 1010.1 - 0.0 - - - - - - -
20/09:00am 26.0 S 4 8 1010.0 - 14.0 - - - - - - -
20/08:30am 25.6 S 2 4 1010.0 - 14.0 - - - - - - -
20/08:00am 25.4 S 5 11 1009.6 - 14.0 - - - - - - -
20/07:30am 25.0 SSE 1 4 1009.8 - 14.0 - - - - - - -
20/07:00am 25.4 S 1 3 1009.1 - 14.0 - - - - - - -
20/06:30am 25.7 CALM 0 2 1009.5 - 13.8 - - - - - - -
20/06:00am 26.1 SSW 5 10 1009.6 - 13.8 Recent precip. - - - - - -
20/05:30am 25.4 SSW 5 9 1008.8 - 13.6 - - - - - - -
20/05:00am 25.3 SSW 8 12 1008.3 - 13.6 - - - - - - -
20/04:30am 24.8 SSE 9 16 1008.1 - 10.4 - - - - - - -
20/04:00am 27.8 SSE 2 7 1007.4 - 9.2 - - - - - - -
20/03:30am 30.4 WNW 5 11 1008.1 - 0.0 - - - - - - -
20/03:00am 28.9 SW 2 6 1007.5 - 0.0 - - - - - - -
20/02:30am 29.0 WSW 5 10 1007.9 - 0.0 - - - - - - -
20/02:00am 28.6 SW 5 8 1008.0 - 0.0 - - - - - - -
20/01:30am 29.9 WNW 6 10 1007.6 - 0.0 - - - - - - -
20/01:00am 30.9 NW 5 8 1008.2 - 0.0 - - - - - - -
20/12:30am 30.9 WNW 5 8 1009.4 - 0.0 - - - - - - -
20/12:00am 30.9 NW 4 7 1009.8 - 0.0 - - - - - - -
 
Date/Time
CST
Temp

°C
Wind Pressure Rain
since 9am
mm
Weather Cloud Vis
km
Sea
Height
m
Swell
Dir
 
Speed
knots
Gust
knots
hPa Trend Height
m
Period
s
Dir
19/11:30pm 30.8 WNW 4 7 1009.6 - 0.0 - - - - - - -
19/11:00pm 30.8 WNW 4 7 1009.8 - 0.0 - - - - - - -
19/10:30pm 30.8 WNW 4 7 1009.8 - 0.0 - - - - - - -
19/10:00pm 30.4 WNW 3 5 1009.2 - 0.0 - - - - - - -
19/09:30pm 28.8 CALM 0 0 1008.8 - 0.0 - - - - - - -
19/09:00pm 28.7 CALM 0 2 1008.5 - 0.0 - - - - - - -
19/08:30pm 28.8 NE 1 2 1008.0 - 0.0 - - - - - - -
19/08:00pm 29.0 NNE 2 3 1007.6 - 0.0 - - - - - - -
19/07:30pm 29.4 ESE 2 5 1007.8 - 0.0 - - - - - - -
19/07:00pm 31.2 SW 2 4 1007.6 - 0.0 - - - - - - -
19/06:30pm 31.2 W 4 7 1007.3 - 0.0 - - - - - - -
19/06:00pm 31.2 WNW 5 7 1006.3 - 0.0 - - - - - - -
19/05:30pm 31.9 W 5 9 1006.4 - 0.0 - - - - - - -
19/05:00pm 32.8 W 7 11 1005.7 - 0.0 - - - - - - -
19/04:30pm 31.9 WNW 7 11 1005.9 - 0.0 - - - - - - -
19/04:00pm 32.0 WNW 6 10 1006.4 - 0.0 - - - - - - -
19/03:30pm 33.5 WNW 6 11 1006.6 - 0.0 - - - - - - -
19/03:00pm 34.0 W 6 10 1007.0 - 0.0 - - - - - - -
19/02:30pm 33.5 W 7 11 1007.5 - 0.0 - - - - - - -
19/02:00pm 33.4 WNW 5 9 1007.9 - 0.0 - - - - - - -
19/01:30pm 33.2 WNW 5 9 1008.5 - 0.0 - - - - - - -
19/01:00pm 33.3 W 5 8 1009.0 - 0.0 - - - - - - -
19/12:30pm 32.7 W 4 6 1009.6 - 0.0 - - - - - - -
19/12:00pm 33.1 W 4 7 1009.6 - 0.0 - - - - - - -
19/11:30am 32.8 WSW 5 7 1010.2 - 0.0 - - - - - - -
19/11:00am 32.3 WSW 4 5 1010.4 - 0.0 - - - - - - -
19/10:30am 32.4 W 3 5 1010.7 - 0.0 - - - - - - -
19/10:00am 32.1 SW 3 4 1010.6 - 0.0 - - - - - - -
19/09:30am 31.4 WSW 2 4 1010.5 - 0.0 - - - - - - -
19/09:00am 31.2 WSW 3 4 1010.3 - 0.0 - - - - - - -
19/08:30am 31.1 SW 1 2 1010.3 - 0.0 - - - - - - -
19/08:00am 30.1 SW 2 3 1010.1 - 0.0 - - - - - - -
19/07:30am 28.8 ESE 1 3 1009.8 - 0.0 - - - - - - -
19/07:00am 28.4 SSW 2 6 1009.5 - 0.0 - - - - - - -
19/06:30am 27.9 WNW 1 3 1009.1 - 0.0 - - - - - - -
19/06:00am 28.0 SSW 1 11 1008.7 - 0.0 - - - - - - -
19/05:30am 28.4 W 4 10 1008.2 - 0.0 - - - - - - -
19/05:00am 29.4 SW 5 13 1008.1 - 0.0 - - - - - - -
19/04:30am 30.2 W 3 5 1007.9 - 0.0 - - - - - - -
19/04:00am 30.4 WNW 4 7 1007.8 - 0.0 - - - - - - -
19/03:30am 30.3 WNW 3 5 1007.8 - 0.0 - - - - - - -
19/03:00am 30.3 W 4 6 1007.9 - 0.0 - - - - - - -
19/02:30am 30.3 WNW 4 6 1008.0 - 0.0 - - - - - - -
19/02:00am 30.5 W 5 7 1008.3 - 0.0 - - - - - - -
19/01:30am 30.6 WNW 5 8 1008.5 - 0.0 - - - - - - -
19/01:00am 30.5 W 4 7 1008.7 - 0.0 - - - - - - -
19/12:30am 30.4 W 3 6 1008.8 - 0.0 - - - - - - -
19/12:00am 30.4 W 3 6 1008.9 - 0.0 - - - - - - -
 
Date/Time
CST
Temp

°C
Wind Pressure Rain
since 9am
mm
Weather Cloud Vis
km
Sea
Height
m
Swell
Dir
 
Speed
knots
Gust
knots
hPa Trend Height
m
Period
s
Dir
18/11:30pm 30.4 WNW 3 6 1008.7 - 0.0 - - - - - - -
18/11:00pm 30.4 WNW 3 5 1008.7 - 0.0 - - - - - - -
18/10:30pm 30.5 WNW 4 6 1008.6 - 0.0 - - - - - - -
18/10:00pm 30.5 WNW 2 7 1008.4 - 0.0 - - - - - - -
18/09:30pm 30.7 WNW 4 7 1008.4 - 0.0 - - - - - - -
18/09:00pm 30.7 WNW 5 8 1008.0 - 0.0 - - - - - - -
18/08:30pm 30.7 WNW 5 8 1007.9 - 0.0 - - - - - - -
18/08:00pm 30.8 WNW 4 7 1007.8 - 0.0 - - - - - - -
18/07:30pm 30.8 WNW 3 5 1007.4 - 0.0 - - - - - - -
18/07:00pm 31.0 WNW 3 5 1006.9 - 0.0 - - - - - - -
18/06:30pm 31.7 W 4 7 1006.6 - 0.0 - - - - - - -
18/06:00pm 31.4 WNW 5 8 1006.0 - 0.0 - - - - - - -
18/05:30pm 31.3 W 4 7 1006.0 - 0.0 - - - - - - -
18/05:00pm 32.1 W 5 8 1005.7 - 0.0 - - - - - - -
18/04:30pm 31.9 W 5 8 1006.0 - 0.0 - - - - - - -
18/04:00pm 31.6 WNW 5 7 1006.7 - 0.0 - - - - - - -
18/03:30pm 31.8 W 4 8 1006.7 - 0.0 - - - - - - -
18/03:00pm 32.1 W 6 9 1007.4 - 0.0 - - - - - - -
18/02:30pm 33.5 W 7 12 1007.3 - 0.0 - - - - - - -
18/02:00pm 33.6 W 7 11 1008.0 - 0.0 - - - - - - -
18/01:30pm 33.4 WNW 6 11 1008.0 - 0.0 - - - - - - -
18/01:00pm 33.3 WNW 6 10 1008.4 - 0.0 - - - - - - -
18/12:30pm 32.3 WNW 6 9 1008.8 - 0.0 - - - - - - -
18/12:00pm 32.7 WNW 5 8 1009.4 - 0.0 - - - - - - -
18/11:30am 33.1 WNW 5 8 1009.5 - 0.0 - - - - - - -
18/11:00am 33.4 W 5 7 1009.8 - 0.0 - - - - - - -
18/10:30am 33.1 WNW 5 9 1009.8 - 0.0 - - - - - - -
18/10:00am 32.4 WNW 4 8 1009.7 - 0.0 - - - - - - -
18/09:30am 32.9 WNW 5 9 1009.3 - 0.0 - - - - - - -
18/09:00am 32.1 WNW 4 8 1008.9 - 0.0 - - - - - - -
18/08:30am 31.9 WNW 3 6 1008.6 - 0.0 - - - - - - -
18/08:00am 30.5 NW 3 5 1008.6 - 0.0 - - - - - - -
18/07:30am 30.3 NW 2 4 1008.2 - 0.0 - - - - - - -
18/07:00am 29.8 NW 3 5 1007.9 - 0.0 - - - - - - -
18/06:30am 29.7 NW 3 5 1007.4 - 0.0 - - - - - - -
18/06:00am 29.6 NW 1 3 1006.8 - 0.0 - - - - - - -
18/05:30am 29.8 NW 3 5 1006.4 - 0.0 - - - - - - -
18/05:00am 29.8 WNW 3 4 1006.1 - 0.0 - - - - - - -
18/04:30am 29.9 WNW 3 5 1005.9 - 0.0 - - - - - - -
18/04:00am 29.9 WNW 2 4 1005.8 - 0.0 - - - - - - -
18/03:30am 29.9 NW 3 6 1005.7 - 0.0 - - - - - - -
18/03:00am 30.0 NW 1 3 1006.0 - 0.0 - - - - - - -
18/02:30am 30.1 WNW 3 5 1005.7 - 0.0 - - - - - - -
18/02:00am 30.2 WNW 4 6 1005.8 - 0.0 - - - - - - -
18/01:30am 30.1 NW 2 3 1006.7 - 0.0 - - - - - - -
18/01:00am 30.0 NW 2 4 1007.0 - 0.0 - - - - - - -
18/12:30am 30.3 NNW 3 5 1007.0 - 0.0 - - - - - - -
18/12:00am 30.4 NNW 5 10 1006.7 - 0.0 - - - - - - -
 
Date/Time
CST
Temp

°C
Wind Pressure Rain
since 9am
mm
Weather Cloud Vis
km
Sea
Height
m
Swell
Dir
 
Speed
knots
Gust
knots
hPa Trend Height
m
Period
s
Dir
17/11:30pm 30.5 NW 5 9 1006.5 - 0.0 - - - - - - -
17/11:00pm 30.4 WNW 5 9 1006.8 - 0.0 - - - - - - -
17/10:30pm 30.6 W 6 10 1007.0 - 0.0 - - - - - - -
17/10:00pm 30.6 W 4 7 1007.6 - 0.0 - - - - - - -
17/09:30pm 30.6 W 4 7 1007.9 - 0.0 - - - - - - -
17/09:00pm 30.7 W 5 8 1007.7 - 0.0 - - - - - - -
17/08:30pm 30.6 W 4 8 1007.4 - 0.0 - - - - - - -
17/08:00pm 30.5 WNW 4 7 1007.1 - 0.0 - - - - - - -
17/07:30pm 30.6 WNW 5 9 1006.7 - 0.0 - - - - - - -
17/07:00pm 30.7 WNW 5 9 1005.7 - 0.0 - - - - - - -
17/06:30pm 30.8 WNW 6 10 1005.1 - 0.0 - - - - - - -

Other Formats:

Comma delimited format used in spreadsheet applications
http://www.bom.gov.au/fwo/IDD60701/IDD60701.94116.axf

JavaScript Object Notation format (JSON) in row-major order
http://www.bom.gov.au/fwo/IDD60701/IDD60701.94116.json